createdAt,value
2023-02-28T00:01:06.326Z,100383.55
2023-02-28T00:03:35.633Z,100386.90
2023-02-28T00:06:05.039Z,100382.55
2023-02-28T00:08:32.257Z,100382.42
2023-02-28T00:11:03.812Z,100386.84
2023-02-28T00:13:31.346Z,100394.91
2023-02-28T00:16:03.838Z,100395.63
2023-02-28T00:18:31.635Z,100399.48
2023-02-28T00:20:59.422Z,100401.95
2023-02-28T00:23:27.351Z,100403.71
2023-02-28T00:25:54.376Z,100402.85
2023-02-28T00:28:22.257Z,100404.13
2023-02-28T00:30:49.424Z,100406.11
2023-02-28T00:33:16.495Z,100400.41
2023-02-28T00:35:46.713Z,100402.16
2023-02-28T00:38:14.234Z,100396.27
2023-02-28T00:40:41.173Z,100397.14
2023-02-28T00:43:08.232Z,100397.54
2023-02-28T00:45:35.200Z,100404.00
2023-02-28T00:48:02.237Z,100403.51
2023-02-28T00:50:30.089Z,100401.80
2023-02-28T00:52:57.855Z,100401.13
2023-02-28T00:55:24.863Z,100396.45
2023-02-28T00:57:51.850Z,100397.70
2023-02-28T01:00:19.100Z,100399.29
2023-02-28T01:02:45.970Z,100401.27
2023-02-28T01:05:13.511Z,100401.30
2023-02-28T01:07:40.484Z,100403.77
2023-02-28T01:10:08.418Z,100402.91
2023-02-28T01:12:35.497Z,100405.56
2023-02-28T01:15:02.758Z,100402.98
2023-02-28T01:17:29.884Z,100401.46
2023-02-28T01:19:56.915Z,100407.05
2023-02-28T01:22:25.889Z,100406.55
2023-02-28T01:24:53.476Z,100410.42
2023-02-28T01:27:20.563Z,100412.19
2023-02-28T01:29:47.521Z,100416.91
2023-02-28T01:32:14.531Z,100417.81
2023-02-28T01:34:41.628Z,100415.38
2023-02-28T01:37:08.567Z,100414.20
2023-02-28T01:39:35.479Z,100413.17
2023-02-28T01:42:04.288Z,100411.29
2023-02-28T01:45:01.795Z,100411.46
2023-02-28T01:47:36.949Z,100411.48
2023-02-28T01:50:06.710Z,100412.55
2023-02-28T01:52:34.571Z,100412.23
2023-02-28T01:55:04.744Z,100417.82
2023-02-28T01:57:38.116Z,100417.48
2023-02-28T02:00:15.521Z,100412.98
2023-02-28T02:02:51.272Z,100410.89
2023-02-28T02:05:31.567Z,100412.84
2023-02-28T02:08:12.677Z,100413.73
2023-02-28T02:10:55.932Z,100418.77
2023-02-28T02:13:55.996Z,100413.37
2023-02-28T02:16:39.431Z,100410.60
2023-02-28T02:19:34.556Z,100409.40
2023-02-28T02:22:16.475Z,100408.19
2023-02-28T02:24:55.378Z,100403.33
2023-02-28T02:27:37.158Z,100404.39
2023-02-28T02:30:22.585Z,100403.52
2023-02-28T02:32:49.498Z,100398.83
2023-02-28T02:36:02.416Z,100399.71
2023-02-28T02:38:43.936Z,100393.80
2023-02-28T02:41:25.010Z,100392.94
2023-02-28T02:44:02.043Z,100392.42
2023-02-28T02:46:42.856Z,100388.09
2023-02-28T02:49:16.259Z,100393.13
2023-02-28T02:51:46.312Z,100390.35
2023-02-28T02:54:30.850Z,100387.92
2023-02-28T02:57:02.088Z,100389.48
2023-02-28T02:59:30.870Z,100388.60
2023-02-28T03:02:02.335Z,100390.88
2023-02-28T03:04:33.976Z,100392.25
2023-02-28T03:07:01.069Z,100391.38
2023-02-28T03:09:28.056Z,100394.50
2023-02-28T03:11:57.212Z,100392.24
2023-02-28T03:14:53.383Z,100396.41
2023-02-28T03:17:32.306Z,100395.36
2023-02-28T03:19:59.192Z,100397.09
2023-02-28T03:22:53.699Z,100399.17
2023-02-28T03:25:40.880Z,100398.98
2023-02-28T03:28:37.432Z,100400.38
2023-02-28T03:31:12.781Z,100401.58
2023-02-28T03:33:55.020Z,100406.97
2023-02-28T03:36:32.711Z,100413.55
2023-02-28T03:39:07.720Z,100415.10
2023-02-28T03:41:42.617Z,100415.60
2023-02-28T03:44:16.252Z,100418.02
2023-02-28T03:46:52.831Z,100417.64
2023-02-28T03:49:25.260Z,100422.15
2023-02-28T03:51:54.986Z,100420.56
2023-02-28T03:54:32.100Z,100419.84
2023-02-28T03:57:11.120Z,100418.45
2023-02-28T03:59:44.210Z,100419.82
2023-02-28T04:02:11.216Z,100415.81
2023-02-28T04:04:38.419Z,100426.57
2023-02-28T04:07:08.561Z,100429.15
2023-02-28T04:09:35.639Z,100427.77
2023-02-28T04:12:02.882Z,100430.00
2023-02-28T04:14:30.226Z,100431.20
2023-02-28T04:16:57.458Z,100432.41
2023-02-28T04:19:24.764Z,100435.69
2023-02-28T04:21:53.601Z,100436.19
2023-02-28T04:24:23.566Z,100437.92
2023-02-28T04:26:53.287Z,100434.42
2023-02-28T04:29:29.426Z,100433.37
2023-02-28T04:32:01.095Z,100435.95
2023-02-28T04:34:30.827Z,100436.97
2023-02-28T04:37:11.980Z,100440.95
2023-02-28T04:39:40.862Z,100438.67
2023-02-28T04:42:08.095Z,100441.95
2023-02-28T04:44:35.028Z,100438.81
2023-02-28T04:47:02.001Z,100445.19
2023-02-28T04:49:29.147Z,100443.45
2023-02-28T04:51:56.184Z,100447.07
2023-02-28T04:54:23.183Z,100444.13
2023-02-28T04:56:50.284Z,100448.80
2023-02-28T04:59:17.813Z,100450.34
2023-02-28T05:01:49.381Z,100449.80
2023-02-28T05:04:16.704Z,100454.29
2023-02-28T05:06:43.686Z,100458.08
2023-02-28T05:09:13.763Z,100456.17
2023-02-28T05:11:41.386Z,100454.77
2023-02-28T05:14:13.699Z,100453.56
2023-02-28T05:16:40.965Z,100452.84
2023-02-28T05:19:08.135Z,100449.53
2023-02-28T05:21:38.290Z,100450.73
2023-02-28T05:24:08.437Z,100454.71
2023-02-28T05:26:41.110Z,100459.04
2023-02-28T05:29:09.252Z,100463.37
2023-02-28T05:31:36.863Z,100464.43
2023-02-28T05:34:06.708Z,100470.48
2023-02-28T05:36:34.166Z,100473.07
2023-02-28T05:39:01.228Z,100477.05
2023-02-28T05:41:28.683Z,100481.70
2023-02-28T05:43:57.695Z,100490.20
2023-02-28T05:46:24.629Z,100497.67
2023-02-28T05:48:51.634Z,100500.60
2023-02-28T05:51:18.743Z,100501.48
2023-02-28T05:53:45.996Z,100503.39
2023-02-28T05:56:13.300Z,100508.08
2023-02-28T05:58:40.788Z,100509.83
2023-02-28T06:01:37.937Z,100515.02
2023-02-28T06:04:14.341Z,100513.67
2023-02-28T06:06:50.688Z,100515.08
2023-02-28T06:09:19.661Z,100519.25
2023-02-28T06:11:47.238Z,100523.45
2023-02-28T06:14:19.711Z,100528.17
2023-02-28T06:16:48.089Z,100525.62
2023-02-28T06:19:15.984Z,100527.40
2023-02-28T06:21:43.512Z,100529.36
2023-02-28T06:24:10.952Z,100529.23
2023-02-28T06:26:38.524Z,100530.00
2023-02-28T06:29:06.169Z,100531.61
2023-02-28T06:31:34.091Z,100535.13
2023-02-28T06:34:01.803Z,100531.70
2023-02-28T06:36:29.517Z,100530.16
2023-02-28T06:38:57.271Z,100527.08
2023-02-28T06:41:26.430Z,100534.56
2023-02-28T06:43:55.068Z,100535.98
2023-02-28T06:46:24.504Z,100530.44
2023-02-28T06:48:52.377Z,100529.60
2023-02-28T06:51:22.724Z,100532.23
2023-02-28T06:53:50.454Z,100537.30
2023-02-28T06:56:18.967Z,100536.29
2023-02-28T06:58:52.139Z,100538.05
2023-02-28T07:01:20.441Z,100536.88
2023-02-28T07:03:52.496Z,100533.27
2023-02-28T07:06:24.741Z,100540.05
2023-02-28T07:08:53.514Z,100543.21
2023-02-28T07:11:26.061Z,100546.70
2023-02-28T07:13:55.526Z,100545.51
2023-02-28T07:16:24.289Z,100546.58
2023-02-28T07:18:55.564Z,100551.46
2023-02-28T07:21:23.011Z,100553.55
2023-02-28T07:23:50.633Z,100554.60
2023-02-28T07:26:20.537Z,100552.15
2023-02-28T07:28:49.001Z,100547.95
2023-02-28T07:31:17.568Z,100540.80
2023-02-28T07:33:44.724Z,100540.23
2023-02-28T07:36:15.601Z,100534.95
2023-02-28T07:38:45.778Z,100535.92
2023-02-28T07:41:16.225Z,100535.30
2023-02-28T07:43:44.679Z,100534.83
2023-02-28T07:46:17.732Z,100537.28
2023-02-28T07:48:45.689Z,100532.91
2023-02-28T07:51:13.048Z,100533.06
2023-02-28T07:53:41.083Z,100530.41
2023-02-28T07:56:08.391Z,100533.50
2023-02-28T07:58:35.410Z,100531.88
2023-02-28T08:01:10.345Z,100528.59
2023-02-28T08:03:38.832Z,100525.77
2023-02-28T08:06:08.307Z,100520.90
2023-02-28T08:08:35.704Z,100518.39
2023-02-28T08:11:03.835Z,100518.63
2023-02-28T08:13:32.187Z,100517.90
2023-02-28T08:16:02.490Z,100519.56
2023-02-28T08:18:30.118Z,100523.69
2023-02-28T08:20:57.827Z,100522.79
2023-02-28T08:23:25.001Z,100525.55
2023-02-28T08:25:56.237Z,100528.88
2023-02-28T08:28:26.095Z,100527.77
2023-02-28T08:30:55.318Z,100525.55
2023-02-28T08:33:23.228Z,100525.27
2023-02-28T08:35:54.416Z,100529.30
2023-02-28T08:38:22.471Z,100525.81
2023-02-28T08:40:50.040Z,100532.24
2023-02-28T08:43:17.257Z,100533.59
2023-02-28T08:45:44.484Z,100529.59
2023-02-28T08:48:11.583Z,100523.65
2023-02-28T08:50:38.573Z,100527.34
2023-02-28T08:53:05.759Z,100527.45
2023-02-28T08:55:32.763Z,100521.27
2023-02-28T08:58:01.560Z,100518.02
2023-02-28T09:00:28.994Z,100522.00
2023-02-28T09:02:55.975Z,100519.62
2023-02-28T09:05:23.377Z,100519.11
2023-02-28T09:07:50.484Z,100520.23
2023-02-28T09:10:17.556Z,100520.17
2023-02-28T09:12:47.252Z,100518.91
2023-02-28T09:15:14.326Z,100519.77
2023-02-28T09:17:41.891Z,100517.58
2023-02-28T09:20:10.369Z,100513.27
2023-02-28T09:22:37.384Z,100517.45
2023-02-28T09:25:04.735Z,100515.11
2023-02-28T09:27:31.830Z,100516.34
2023-02-28T09:29:58.917Z,100514.85
2023-02-28T09:32:26.033Z,100515.45
2023-02-28T09:34:53.144Z,100517.27
2023-02-28T09:37:20.318Z,100516.65
2023-02-28T09:39:47.375Z,100516.89
2023-02-28T09:42:33.476Z,100515.42
2023-02-28T09:45:16.559Z,100515.50
2023-02-28T09:47:47.051Z,100514.04
2023-02-28T09:50:28.980Z,100514.04
2023-02-28T09:52:56.656Z,100505.20
2023-02-28T09:55:28.931Z,100505.33
2023-02-28T09:58:00.440Z,100504.77
2023-02-28T10:00:34.706Z,100505.97
2023-02-28T10:03:01.874Z,100507.52
2023-02-28T10:06:12.612Z,100501.34
2023-02-28T10:08:48.897Z,100502.76
2023-02-28T10:11:18.719Z,100500.52
2023-02-28T10:14:16.273Z,100500.90
2023-02-28T10:17:04.217Z,100505.99
2023-02-28T10:19:34.168Z,100503.59
2023-02-28T10:22:04.343Z,100500.95
2023-02-28T10:24:54.508Z,100495.77
2023-02-28T10:27:29.336Z,100493.16
2023-02-28T10:29:59.581Z,100489.01
2023-02-28T10:32:31.411Z,100484.30
2023-02-28T10:35:18.546Z,100482.15
2023-02-28T10:37:50.483Z,100482.66
2023-02-28T10:40:20.569Z,100478.63
2023-02-28T10:43:01.216Z,100474.66
2023-02-28T10:45:35.421Z,100470.32
2023-02-28T10:48:11.695Z,100465.86
2023-02-28T10:50:50.064Z,100466.47
2023-02-28T10:53:26.193Z,100463.23
2023-02-28T10:56:18.081Z,100462.28
2023-02-28T10:58:45.312Z,100457.11
2023-02-28T11:01:18.409Z,100452.59
2023-02-28T11:03:46.459Z,100450.91
2023-02-28T11:06:21.499Z,100454.20
2023-02-28T11:08:53.077Z,100455.94
2023-02-28T11:11:22.136Z,100454.48
2023-02-28T11:13:53.826Z,100449.73
2023-02-28T11:16:22.110Z,100448.48
2023-02-28T11:18:55.763Z,100446.90
2023-02-28T11:21:52.401Z,100439.73
2023-02-28T11:24:29.232Z,100434.30
2023-02-28T11:26:57.150Z,100432.08
2023-02-28T11:29:27.747Z,100437.02
2023-02-28T11:32:13.261Z,100438.45
2023-02-28T11:34:41.252Z,100439.90
2023-02-28T11:37:19.181Z,100435.31
2023-02-28T11:39:47.098Z,100430.52
2023-02-28T11:42:29.039Z,100425.86
2023-02-28T11:45:15.578Z,100424.52
2023-02-28T11:47:57.281Z,100421.37
2023-02-28T11:50:27.725Z,100417.73
2023-02-28T11:52:56.924Z,100421.61
2023-02-28T11:55:48.176Z,100416.40
2023-02-28T11:58:34.292Z,100414.14
2023-02-28T12:01:37.403Z,100411.30
2023-02-28T12:04:23.472Z,100410.42
2023-02-28T12:06:57.077Z,100406.48
2023-02-28T12:09:52.390Z,100405.42
2023-02-28T12:12:44.377Z,100400.52
2023-02-28T12:15:44.175Z,100401.61
2023-02-28T12:18:31.321Z,100400.10
2023-02-28T12:21:12.054Z,100404.87
2023-02-28T12:23:54.874Z,100399.38
2023-02-28T12:26:56.017Z,100395.81
2023-02-28T12:29:30.540Z,100397.27
2023-02-28T12:32:13.001Z,100394.31
2023-02-28T12:35:05.104Z,100396.06
2023-02-28T12:37:43.994Z,100394.77
2023-02-28T12:40:13.200Z,100397.88
2023-02-28T12:42:46.760Z,100395.04
2023-02-28T12:45:24.438Z,100391.26
2023-02-28T12:48:01.382Z,100395.08
2023-02-28T12:50:31.809Z,100395.67
2023-02-28T12:53:01.227Z,100396.14
2023-02-28T12:55:40.197Z,100393.12
2023-02-28T12:58:13.523Z,100391.90
2023-02-28T13:01:01.583Z,100390.83
2023-02-28T13:04:00.535Z,100389.70
2023-02-28T13:07:18.301Z,100387.15
2023-02-28T13:10:01.311Z,100387.89
2023-02-28T13:12:28.934Z,100385.45
2023-02-28T13:15:16.903Z,100386.86
2023-02-28T13:17:50.470Z,100387.42
2023-02-28T13:20:24.190Z,100376.31
2023-02-28T13:22:54.077Z,100371.20
2023-02-28T13:25:34.842Z,100366.71
2023-02-28T13:28:09.128Z,100367.02
2023-02-28T13:30:58.993Z,100364.60
2023-02-28T13:33:40.234Z,100360.77
2023-02-28T13:36:23.429Z,100362.65
2023-02-28T13:39:00.656Z,100359.83
2023-02-28T13:41:34.130Z,100357.56
2023-02-28T13:44:12.074Z,100358.89
2023-02-28T13:46:48.603Z,100359.76
2023-02-28T13:49:34.806Z,100361.48
2023-02-28T13:52:09.058Z,100354.30
2023-02-28T13:55:09.110Z,100349.63
2023-02-28T13:57:55.626Z,100349.73
2023-02-28T14:01:02.891Z,100348.36
2023-02-28T14:03:36.383Z,100343.63
2023-02-28T14:06:15.215Z,100338.54
2023-02-28T14:08:56.871Z,100335.53
2023-02-28T14:11:31.693Z,100331.70
2023-02-28T14:13:59.904Z,100331.80
2023-02-28T14:16:37.087Z,100334.42
2023-02-28T14:19:26.124Z,100330.55
2023-02-28T14:22:25.033Z,100330.08
2023-02-28T14:25:17.069Z,100331.63
2023-02-28T14:27:48.646Z,100328.17
2023-02-28T14:30:34.455Z,100327.48
2023-02-28T14:33:49.457Z,100334.69
2023-02-28T14:36:28.104Z,100336.42
2023-02-28T14:39:01.869Z,100334.37
2023-02-28T14:41:37.148Z,100334.02
2023-02-28T14:44:21.514Z,100340.61
2023-02-28T14:46:55.371Z,100338.55
2023-02-28T14:49:29.536Z,100337.46
2023-02-28T14:52:19.409Z,100338.44
2023-02-28T14:54:46.901Z,100340.65
2023-02-28T14:57:41.429Z,100337.89
2023-02-28T15:00:16.833Z,100339.88
2023-02-28T15:02:44.046Z,100343.74
2023-02-28T15:05:23.500Z,100341.64
2023-02-28T15:08:13.563Z,100340.65
2023-02-28T15:10:51.158Z,100340.14
2023-02-28T15:13:19.702Z,100343.12
2023-02-28T15:16:04.404Z,100340.19
2023-02-28T15:18:31.947Z,100340.89
2023-02-28T15:21:13.734Z,100339.27
2023-02-28T15:23:45.468Z,100337.96
2023-02-28T15:26:17.739Z,100336.33
2023-02-28T15:28:46.300Z,100337.16
2023-02-28T15:31:57.293Z,100335.70
2023-02-28T15:34:43.543Z,100337.14
2023-02-28T15:37:31.037Z,100339.43
2023-02-28T15:40:11.805Z,100336.92
2023-02-28T15:42:39.285Z,100339.31
2023-02-28T15:45:26.585Z,100341.21
2023-02-28T15:47:54.787Z,100341.63
2023-02-28T15:50:23.450Z,100347.63
2023-02-28T15:52:50.622Z,100344.81
2023-02-28T15:55:28.620Z,100349.06
2023-02-28T15:57:59.088Z,100346.11
2023-02-28T16:00:29.172Z,100348.45
2023-02-28T16:02:56.312Z,100350.20
2023-02-28T16:05:33.028Z,100348.98
2023-02-28T16:08:16.035Z,100348.80
2023-02-28T16:10:43.103Z,100353.02
2023-02-28T16:13:15.507Z,100353.05
2023-02-28T16:15:44.190Z,100357.09
2023-02-28T16:18:12.460Z,100357.95
2023-02-28T16:20:39.709Z,100365.27
2023-02-28T16:23:07.519Z,100368.38
2023-02-28T16:25:39.048Z,100366.76
2023-02-28T16:28:18.856Z,100367.40
2023-02-28T16:30:45.965Z,100367.16
2023-02-28T16:33:12.907Z,100369.58
2023-02-28T16:35:40.111Z,100371.12
2023-02-28T16:38:07.142Z,100378.96
2023-02-28T16:40:36.125Z,100382.26
2023-02-28T16:43:10.168Z,100386.41
2023-02-28T16:45:37.271Z,100386.37
2023-02-28T16:48:04.387Z,100384.55
2023-02-28T16:50:33.004Z,100384.86
2023-02-28T16:52:59.971Z,100392.16
2023-02-28T16:55:28.287Z,100393.49
2023-02-28T16:57:58.828Z,100394.30
2023-02-28T17:00:27.752Z,100401.21
2023-02-28T17:02:55.516Z,100401.15
2023-02-28T17:05:23.564Z,100401.08
2023-02-28T17:07:50.670Z,100400.15
2023-02-28T17:10:25.349Z,100399.70
2023-02-28T17:12:55.012Z,100400.48
2023-02-28T17:15:23.845Z,100401.60
2023-02-28T17:17:50.906Z,100402.59
2023-02-28T17:20:26.925Z,100403.89
2023-02-28T17:22:54.834Z,100403.45
2023-02-28T17:25:23.080Z,100406.67
2023-02-28T17:27:53.626Z,100402.56
2023-02-28T17:30:27.541Z,100401.76
2023-02-28T17:32:57.668Z,100400.10
2023-02-28T17:35:24.658Z,100401.89
2023-02-28T17:37:52.071Z,100400.72
2023-02-28T17:40:22.753Z,100403.41
2023-02-28T17:42:52.715Z,100400.86
2023-02-28T17:45:20.222Z,100402.30
2023-02-28T17:47:50.743Z,100400.25
2023-02-28T17:50:21.334Z,100398.18
2023-02-28T17:52:50.798Z,100399.98
2023-02-28T17:55:19.369Z,100401.94
2023-02-28T17:57:46.712Z,100399.37
2023-02-28T18:00:17.688Z,100398.72
2023-02-28T18:02:44.937Z,100397.56
2023-02-28T18:05:12.027Z,100399.38
2023-02-28T18:07:39.641Z,100398.89
2023-02-28T18:10:13.351Z,100397.19
2023-02-28T18:12:40.380Z,100402.29
2023-02-28T18:15:07.749Z,100400.61
2023-02-28T18:17:34.716Z,100403.08
2023-02-28T18:20:01.870Z,100403.81
2023-02-28T18:22:28.977Z,100398.98
2023-02-28T18:24:55.960Z,100400.08
2023-02-28T18:27:22.970Z,100401.34
2023-02-28T18:29:51.794Z,100401.88
2023-02-28T18:32:18.724Z,100404.86
2023-02-28T18:34:45.832Z,100400.73
2023-02-28T18:37:12.835Z,100402.31
2023-02-28T18:39:39.952Z,100401.30
2023-02-28T18:42:08.294Z,100403.94
2023-02-28T18:44:37.607Z,100403.77
2023-02-28T18:47:04.801Z,100403.80
2023-02-28T18:49:37.333Z,100401.56
2023-02-28T18:52:04.476Z,100398.81
2023-02-28T18:54:31.409Z,100398.15
2023-02-28T18:56:58.364Z,100396.61
2023-02-28T18:59:25.727Z,100393.84
2023-02-28T19:01:52.746Z,100396.13
2023-02-28T19:04:19.857Z,100394.23
2023-02-28T19:06:46.888Z,100399.63
2023-02-28T19:09:15.469Z,100399.98
2023-02-28T19:11:43.668Z,100398.93
2023-02-28T19:14:10.599Z,100397.02
2023-02-28T19:16:37.773Z,100396.16
2023-02-28T19:19:05.143Z,100394.60
2023-02-28T19:21:32.191Z,100391.83
2023-02-28T19:24:02.197Z,100393.25
2023-02-28T19:26:29.661Z,100394.30
2023-02-28T19:28:56.938Z,100394.83
2023-02-28T19:31:25.748Z,100395.02
2023-02-28T19:33:53.443Z,100398.69
2023-02-28T19:36:21.443Z,100402.34
2023-02-28T19:38:49.575Z,100404.10
2023-02-28T19:41:17.810Z,100406.39
2023-02-28T19:43:45.634Z,100405.69
2023-02-28T19:46:15.686Z,100405.52
2023-02-28T19:48:44.184Z,100400.67
2023-02-28T19:51:14.649Z,100398.77
2023-02-28T19:53:42.932Z,100398.96
2023-02-28T19:56:11.218Z,100397.22
2023-02-28T19:58:39.030Z,100393.92
2023-02-28T20:01:17.942Z,100392.38
2023-02-28T20:03:51.503Z,100388.39
2023-02-28T20:06:18.581Z,100391.17
2023-02-28T20:08:45.764Z,100393.60
2023-02-28T20:11:15.993Z,100397.09
2023-02-28T20:13:44.300Z,100396.23
2023-02-28T20:16:12.567Z,100392.56
2023-02-28T20:18:40.975Z,100385.98
2023-02-28T20:21:09.502Z,100392.23
2023-02-28T20:23:41.141Z,100393.27
2023-02-28T20:26:09.302Z,100400.77
2023-02-28T20:28:36.530Z,100404.56
2023-02-28T20:31:10.316Z,100405.44
2023-02-28T20:33:37.336Z,100405.80
2023-02-28T20:36:04.977Z,100409.61
2023-02-28T20:38:32.673Z,100401.80
2023-02-28T20:41:00.736Z,100401.98
2023-02-28T20:43:29.183Z,100399.71
2023-02-28T20:46:00.832Z,100400.24
2023-02-28T20:48:32.670Z,100394.52
2023-02-28T20:50:59.712Z,100392.95
2023-02-28T20:53:27.922Z,100392.44
2023-02-28T20:55:55.052Z,100388.43
2023-02-28T20:58:24.501Z,100386.70
2023-02-28T21:00:58.479Z,100387.22
2023-02-28T21:03:25.473Z,100385.84
2023-02-28T21:05:52.331Z,100384.11
2023-02-28T21:08:19.477Z,100382.54
2023-02-28T21:10:46.570Z,100384.80
2023-02-28T21:13:13.758Z,100386.89
2023-02-28T21:15:40.679Z,100386.86
2023-02-28T21:18:08.366Z,100386.00
2023-02-28T21:20:35.348Z,100389.30
2023-02-28T21:23:02.405Z,100389.30
2023-02-28T21:25:32.798Z,100390.34
2023-02-28T21:27:59.718Z,100389.98
2023-02-28T21:30:26.615Z,100388.60
2023-02-28T21:32:53.713Z,100385.30
2023-02-28T21:35:20.928Z,100384.77
2023-02-28T21:37:47.909Z,100390.69
2023-02-28T21:40:15.002Z,100389.63
2023-02-28T21:42:41.948Z,100388.41
2023-02-28T21:45:09.118Z,100390.67
2023-02-28T21:47:36.170Z,100394.66
2023-02-28T21:50:03.247Z,100397.09
2023-02-28T21:52:30.167Z,100399.00
2023-02-28T21:54:57.316Z,100399.16
2023-02-28T21:57:24.350Z,100401.42
2023-02-28T21:59:51.416Z,100393.10
2023-02-28T22:02:18.470Z,100394.31
2023-02-28T22:04:45.443Z,100396.71
2023-02-28T22:07:12.465Z,100395.86
2023-02-28T22:09:39.416Z,100399.50
2023-02-28T22:12:07.790Z,100395.50
2023-02-28T22:14:34.725Z,100394.81
2023-02-28T22:17:01.812Z,100397.92
2023-02-28T22:19:29.448Z,100396.35
2023-02-28T22:21:56.585Z,100399.82
2023-02-28T22:24:24.658Z,100397.90
2023-02-28T22:26:53.188Z,100401.19
2023-02-28T22:29:20.451Z,100406.73
2023-02-28T22:31:47.670Z,100408.80
2023-02-28T22:34:14.701Z,100414.00
2023-02-28T22:36:42.865Z,100415.73
2023-02-28T22:39:10.477Z,100418.16
2023-02-28T22:41:38.171Z,100419.89
2023-02-28T22:44:06.650Z,100423.19
2023-02-28T22:46:34.605Z,100428.55
2023-02-28T22:49:03.900Z,100432.20
2023-02-28T22:51:31.312Z,100433.91
2023-02-28T22:53:58.743Z,100438.41
2023-02-28T22:56:29.029Z,100436.67
2023-02-28T22:58:58.460Z,100434.76
2023-02-28T23:01:28.543Z,100435.62
2023-02-28T23:03:56.192Z,100437.17
2023-02-28T23:06:26.346Z,100439.77
2023-02-28T23:08:57.728Z,100442.36
2023-02-28T23:11:28.593Z,100443.91
2023-02-28T23:13:59.274Z,100447.37
2023-02-28T23:16:37.130Z,100443.53
2023-02-28T23:19:13.952Z,100445.95
2023-02-28T23:21:42.036Z,100442.27
2023-02-28T23:24:11.235Z,100439.48
2023-02-28T23:26:43.285Z,100445.21
2023-02-28T23:29:12.301Z,100448.85
2023-02-28T23:31:39.469Z,100448.48
2023-02-28T23:34:07.528Z,100446.06
2023-02-28T23:36:34.755Z,100448.83
2023-02-28T23:39:01.805Z,100446.36
2023-02-28T23:41:29.094Z,100444.29
2023-02-28T23:43:56.278Z,100441.84
2023-02-28T23:46:23.407Z,100439.40
2023-02-28T23:48:50.743Z,100435.25
2023-02-28T23:51:20.577Z,100433.48
2023-02-28T23:53:51.814Z,100437.46
2023-02-28T23:56:21.612Z,100438.33
2023-02-28T23:58:49.756Z,100438.99
